Southwest Florida International Airport
KRSW : now visible

Airfield :











YOU CAN JOIN US ON...

 
LOGIN :

Register | Disclaimer

   EN    FR    IT 

 









Legend :    VFR   Marginal VFR   IFR   Intensive IFR   Very Intensive IFR
Visi :
Ceiling :
>= 8 km
>= 3000ft
5 to 8 km
1000 to 3000 ft
1500m to 5 km
500 to 1000 ft
800 to 1500m
200 to 500 ft
< 800m
< 200 ft
Symbols :   Thunderstorms  Fog  Heavy snow  Heavy precipitations  Wind > 20 kt







- Airport Elevation : 30 ft
- IATA code : RSW


KRSW - Southwest Florida International

CURRENT METAR :
  • 161853Z 23013KT 10SM CLR 26/17 A2990 RMK AO2 SLP123 T02560167

EXPIRED METARs :
  • 161753Z 23012KT 10SM CLR 26/16 A2993 RMK AO2 SLP132 T02560161 10256 20150 58017
  • 161653Z 21008KT 10SM CLR 25/16 A2995 RMK AO2 SLP139 T02500161

TAF KRSW
Valid from the 16 at 18:00 until the 17 at 18:00 UTC


161731Z 1618/1718 22010KT P6SM SCT045 BKN250
FM170100 20004KT P6SM BKN250
FM170900 VRB03KT 6SM BR FEW010 SCT250
TEMPO 1709/1713 4SM BR
FM171500 18010KT P6SM FEW025
KZMA FIR / North America



MET'MAP, your aeronautical weather chart ! - Copyright ORBIFLY December 2007 - Disclaimer

ORBIFLY MET'MAP TEAM :

Programming & Development : Alexandra Zaïnal
Concept & Development : Baudouin d'Aumeries
Co-Development & Prog : Marc-Olivier Méhu
Technical & hardware support : Manuel Goepfert

Contact : metmap@orbifly.com




SOURCES & CREDITS :

   NOAA       Earth
Advisory